sensor_id;sensor_type;location;lat;lon;timestamp;temperature;humidity
3069;DHT22;1545;51.728;8.796;2023-08-06T00:02:03;14.60;98.80
3069;DHT22;1545;51.728;8.796;2023-08-06T00:04:28;14.60;98.80
3069;DHT22;1545;51.728;8.796;2023-08-06T00:06:54;14.60;98.80
3069;DHT22;1545;51.728;8.796;2023-08-06T00:09:19;14.60;98.80
3069;DHT22;1545;51.728;8.796;2023-08-06T00:11:45;14.60;98.80
3069;DHT22;1545;51.728;8.796;2023-08-06T00:14:12;14.60;98.80
3069;DHT22;1545;51.728;8.796;2023-08-06T00:16:37;14.60;98.80
3069;DHT22;1545;51.728;8.796;2023-08-06T00:19:03;14.70;98.80
3069;DHT22;1545;51.728;8.796;2023-08-06T00:21:29;14.70;98.80
3069;DHT22;1545;51.728;8.796;2023-08-06T00:23:54;14.80;98.80
3069;DHT22;1545;51.728;8.796;2023-08-06T00:26:19;14.80;98.80
3069;DHT22;1545;51.728;8.796;2023-08-06T00:28:45;14.70;98.80
3069;DHT22;1545;51.728;8.796;2023-08-06T00:31:11;14.70;98.80
3069;DHT22;1545;51.728;8.796;2023-08-06T00:33:36;14.70;98.80
3069;DHT22;1545;51.728;8.796;2023-08-06T00:36:02;14.70;98.80
3069;DHT22;1545;51.728;8.796;2023-08-06T00:38:28;14.70;98.80
3069;DHT22;1545;51.728;8.796;2023-08-06T00:40:53;14.70;98.80
3069;DHT22;1545;51.728;8.796;2023-08-06T00:43:19;14.70;98.80
3069;DHT22;1545;51.728;8.796;2023-08-06T00:45:44;14.70;98.80
3069;DHT22;1545;51.728;8.796;2023-08-06T00:48:10;14.70;98.80
3069;DHT22;1545;51.728;8.796;2023-08-06T00:50:36;14.70;98.80
3069;DHT22;1545;51.728;8.796;2023-08-06T00:53:02;14.70;98.80
3069;DHT22;1545;51.728;8.796;2023-08-06T00:55:27;14.70;98.80
3069;DHT22;1545;51.728;8.796;2023-08-06T00:57:53;14.70;98.80
3069;DHT22;1545;51.728;8.796;2023-08-06T01:00:22;14.60;98.80
3069;DHT22;1545;51.728;8.796;2023-08-06T01:02:48;14.70;98.80
3069;DHT22;1545;51.728;8.796;2023-08-06T01:05:14;14.60;98.80
3069;DHT22;1545;51.728;8.796;2023-08-06T01:07:51;14.60;98.80
3069;DHT22;1545;51.728;8.796;2023-08-06T01:12:51;14.60;98.80
3069;DHT22;1545;51.728;8.796;2023-08-06T01:15:42;14.60;98.80
3069;DHT22;1545;51.728;8.796;2023-08-06T01:18:10;14.50;98.80
3069;DHT22;1545;51.728;8.796;2023-08-06T01:20:35;14.50;98.80
3069;DHT22;1545;51.728;8.796;2023-08-06T01:23:01;14.50;98.80
3069;DHT22;1545;51.728;8.796;2023-08-06T01:25:31;14.50;98.80
3069;DHT22;1545;51.728;8.796;2023-08-06T01:28:04;14.50;98.80
3069;DHT22;1545;51.728;8.796;2023-08-06T01:30:33;14.50;98.80
3069;DHT22;1545;51.728;8.796;2023-08-06T01:33:04;14.50;98.80
3069;DHT22;1545;51.728;8.796;2023-08-06T01:35:32;14.50;98.80
3069;DHT22;1545;51.728;8.796;2023-08-06T01:38:00;14.50;98.80
3069;DHT22;1545;51.728;8.796;2023-08-06T01:40:26;14.50;98.80
3069;DHT22;1545;51.728;8.796;2023-08-06T01:42:53;14.50;98.80
3069;DHT22;1545;51.728;8.796;2023-08-06T01:45:19;14.50;98.80
3069;DHT22;1545;51.728;8.796;2023-08-06T01:47:44;14.40;98.80
3069;DHT22;1545;51.728;8.796;2023-08-06T01:50:10;14.40;98.80
3069;DHT22;1545;51.728;8.796;2023-08-06T01:52:35;14.30;98.80
3069;DHT22;1545;51.728;8.796;2023-08-06T01:55:01;14.30;98.80
3069;DHT22;1545;51.728;8.796;2023-08-06T01:57:26;14.30;98.80
3069;DHT22;1545;51.728;8.796;2023-08-06T01:59:52;14.30;98.80
3069;DHT22;1545;51.728;8.796;2023-08-06T02:02:17;14.30;98.80
3069;DHT22;1545;51.728;8.796;2023-08-06T02:04:43;14.30;98.80
3069;DHT22;1545;51.728;8.796;2023-08-06T02:07:08;14.30;98.80
3069;DHT22;1545;51.728;8.796;2023-08-06T02:09:34;14.30;98.80
3069;DHT22;1545;51.728;8.796;2023-08-06T02:12:00;14.30;98.80
3069;DHT22;1545;51.728;8.796;2023-08-06T02:14:26;14.30;98.80
3069;DHT22;1545;51.728;8.796;2023-08-06T02:16:51;14.40;98.80
3069;DHT22;1545;51.728;8.796;2023-08-06T02:19:17;14.40;98.80
3069;DHT22;1545;51.728;8.796;2023-08-06T02:21:42;14.40;98.80
3069;DHT22;1545;51.728;8.796;2023-08-06T02:24:08;14.40;98.80
3069;DHT22;1545;51.728;8.796;2023-08-06T02:26:33;14.40;98.80
3069;DHT22;1545;51.728;8.796;2023-08-06T02:28:59;14.40;98.80
3069;DHT22;1545;51.728;8.796;2023-08-06T02:31:24;14.30;98.80
3069;DHT22;1545;51.728;8.796;2023-08-06T02:33:50;14.30;98.80
3069;DHT22;1545;51.728;8.796;2023-08-06T02:36:15;14.30;98.80
3069;DHT22;1545;51.728;8.796;2023-08-06T02:38:41;14.30;98.80
3069;DHT22;1545;51.728;8.796;2023-08-06T02:41:06;14.20;98.80
3069;DHT22;1545;51.728;8.796;2023-08-06T02:43:32;14.20;98.80
3069;DHT22;1545;51.728;8.796;2023-08-06T02:45:59;14.20;98.80
3069;DHT22;1545;51.728;8.796;2023-08-06T02:48:24;14.10;98.80
3069;DHT22;1545;51.728;8.796;2023-08-06T02:50:50;14.10;98.80
3069;DHT22;1545;51.728;8.796;2023-08-06T02:53:15;14.10;98.80
3069;DHT22;1545;51.728;8.796;2023-08-06T02:55:48;14.00;98.80
3069;DHT22;1545;51.728;8.796;2023-08-06T02:58:15;14.00;98.80
3069;DHT22;1545;51.728;8.796;2023-08-06T03:00:41;13.90;98.80
3069;DHT22;1545;51.728;8.796;2023-08-06T03:03:07;13.90;98.80
3069;DHT22;1545;51.728;8.796;2023-08-06T03:05:32;13.80;98.80
3069;DHT22;1545;51.728;8.796;2023-08-06T03:07:58;13.80;98.80
3069;DHT22;1545;51.728;8.796;2023-08-06T03:10:23;13.80;98.80
3069;DHT22;1545;51.728;8.796;2023-08-06T03:12:49;13.80;98.80
3069;DHT22;1545;51.728;8.796;2023-08-06T03:15:15;13.80;98.80
3069;DHT22;1545;51.728;8.796;2023-08-06T03:17:41;13.80;98.80
3069;DHT22;1545;51.728;8.796;2023-08-06T03:20:07;13.80;98.80
3069;DHT22;1545;51.728;8.796;2023-08-06T03:22:32;13.70;98.80
3069;DHT22;1545;51.728;8.796;2023-08-06T03:24:58;13.70;98.80
3069;DHT22;1545;51.728;8.796;2023-08-06T03:27:24;13.60;98.80
3069;DHT22;1545;51.728;8.796;2023-08-06T03:29:49;13.60;98.80
3069;DHT22;1545;51.728;8.796;2023-08-06T03:32:18;13.60;98.80
3069;DHT22;1545;51.728;8.796;2023-08-06T03:34:44;13.60;98.80
3069;DHT22;1545;51.728;8.796;2023-08-06T03:37:09;13.50;98.80
3069;DHT22;1545;51.728;8.796;2023-08-06T03:39:35;13.60;98.80
3069;DHT22;1545;51.728;8.796;2023-08-06T03:42:00;13.60;98.80
3069;DHT22;1545;51.728;8.796;2023-08-06T03:44:26;13.60;98.80
3069;DHT22;1545;51.728;8.796;2023-08-06T03:46:53;13.60;98.80
3069;DHT22;1545;51.728;8.796;2023-08-06T03:49:19;13.50;98.80
3069;DHT22;1545;51.728;8.796;2023-08-06T03:51:44;13.50;98.80
3069;DHT22;1545;51.728;8.796;2023-08-06T03:54:10;13.50;98.80
3069;DHT22;1545;51.728;8.796;2023-08-06T03:56:35;13.50;98.80
3069;DHT22;1545;51.728;8.796;2023-08-06T03:59:01;13.50;98.80
3069;DHT22;1545;51.728;8.796;2023-08-06T04:01:26;13.60;98.80
3069;DHT22;1545;51.728;8.796;2023-08-06T04:03:52;13.60;98.80
3069;DHT22;1545;51.728;8.796;2023-08-06T04:06:17;13.60;98.80
3069;DHT22;1545;51.728;8.796;2023-08-06T04:08:43;13.60;98.80
3069;DHT22;1545;51.728;8.796;2023-08-06T04:11:08;13.70;98.80
3069;DHT22;1545;51.728;8.796;2023-08-06T04:13:34;13.70;98.80
3069;DHT22;1545;51.728;8.796;2023-08-06T04:16:03;13.70;98.80
3069;DHT22;1545;51.728;8.796;2023-08-06T04:18:29;13.80;98.80
3069;DHT22;1545;51.728;8.796;2023-08-06T04:20:55;13.80;98.80
3069;DHT22;1545;51.728;8.796;2023-08-06T04:23:22;13.80;98.80
3069;DHT22;1545;51.728;8.796;2023-08-06T04:25:48;13.90;98.80
3069;DHT22;1545;51.728;8.796;2023-08-06T04:28:13;14.00;98.80
3069;DHT22;1545;51.728;8.796;2023-08-06T04:30:39;14.10;98.80
3069;DHT22;1545;51.728;8.796;2023-08-06T04:33:04;14.10;98.80
3069;DHT22;1545;51.728;8.796;2023-08-06T04:35:30;14.20;98.80
3069;DHT22;1545;51.728;8.796;2023-08-06T04:37:55;14.20;98.80
3069;DHT22;1545;51.728;8.796;2023-08-06T04:40:21;14.30;98.80
3069;DHT22;1545;51.728;8.796;2023-08-06T04:42:46;14.30;98.80
3069;DHT22;1545;51.728;8.796;2023-08-06T04:45:12;14.40;98.80
3069;DHT22;1545;51.728;8.796;2023-08-06T04:47:37;14.40;98.80
3069;DHT22;1545;51.728;8.796;2023-08-06T04:50:03;14.50;98.80
3069;DHT22;1545;51.728;8.796;2023-08-06T04:52:29;14.60;98.80
3069;DHT22;1545;51.728;8.796;2023-08-06T04:54:55;14.70;98.80
3069;DHT22;1545;51.728;8.796;2023-08-06T04:57:21;14.80;98.80
3069;DHT22;1545;51.728;8.796;2023-08-06T04:59:46;14.90;98.80
3069;DHT22;1545;51.728;8.796;2023-08-06T05:02:12;14.90;98.80
3069;DHT22;1545;51.728;8.796;2023-08-06T05:04:37;15.00;98.80
3069;DHT22;1545;51.728;8.796;2023-08-06T05:07:04;15.10;98.80
3069;DHT22;1545;51.728;8.796;2023-08-06T05:09:30;15.10;98.80
3069;DHT22;1545;51.728;8.796;2023-08-06T05:11:55;15.10;98.80
3069;DHT22;1545;51.728;8.796;2023-08-06T05:14:21;15.20;98.80
3069;DHT22;1545;51.728;8.796;2023-08-06T05:16:46;15.20;98.80
3069;DHT22;1545;51.728;8.796;2023-08-06T05:19:12;15.30;98.80
3069;DHT22;1545;51.728;8.796;2023-08-06T05:21:37;15.40;98.80
3069;DHT22;1545;51.728;8.796;2023-08-06T05:24:03;15.40;98.80
3069;DHT22;1545;51.728;8.796;2023-08-06T05:26:29;15.50;98.80
3069;DHT22;1545;51.728;8.796;2023-08-06T05:28:54;15.50;98.80
3069;DHT22;1545;51.728;8.796;2023-08-06T05:31:20;15.60;98.80
3069;DHT22;1545;51.728;8.796;2023-08-06T05:33:45;15.70;98.80
3069;DHT22;1545;51.728;8.796;2023-08-06T05:36:11;15.70;98.80
3069;DHT22;1545;51.728;8.796;2023-08-06T05:38:36;15.80;98.80
3069;DHT22;1545;51.728;8.796;2023-08-06T05:41:02;15.80;98.80
3069;DHT22;1545;51.728;8.796;2023-08-06T05:43:27;15.80;98.80
3069;DHT22;1545;51.728;8.796;2023-08-06T05:45:53;15.70;98.80
3069;DHT22;1545;51.728;8.796;2023-08-06T05:48:18;15.80;98.80
3069;DHT22;1545;51.728;8.796;2023-08-06T05:50:44;15.80;98.80
3069;DHT22;1545;51.728;8.796;2023-08-06T05:53:10;15.80;98.80
3069;DHT22;1545;51.728;8.796;2023-08-06T05:55:35;15.80;98.80
3069;DHT22;1545;51.728;8.796;2023-08-06T05:58:01;15.90;98.80
3069;DHT22;1545;51.728;8.796;2023-08-06T06:00:26;16.00;98.80
3069;DHT22;1545;51.728;8.796;2023-08-06T06:02:52;16.10;98.50
3069;DHT22;1545;51.728;8.796;2023-08-06T06:05:17;16.20;97.70
3069;DHT22;1545;51.728;8.796;2023-08-06T06:07:43;16.30;97.30
3069;DHT22;1545;51.728;8.796;2023-08-06T06:10:09;16.40;97.20
3069;DHT22;1545;51.728;8.796;2023-08-06T06:12:34;16.50;96.20
3069;DHT22;1545;51.728;8.796;2023-08-06T06:15:00;16.50;96.10
3069;DHT22;1545;51.728;8.796;2023-08-06T06:17:29;16.50;96.00
3069;DHT22;1545;51.728;8.796;2023-08-06T06:19:54;16.50;96.20
3069;DHT22;1545;51.728;8.796;2023-08-06T06:22:20;16.60;95.80
3069;DHT22;1545;51.728;8.796;2023-08-06T06:24:45;16.60;96.00
3069;DHT22;1545;51.728;8.796;2023-08-06T06:27:11;16.70;96.40
3069;DHT22;1545;51.728;8.796;2023-08-06T06:29:36;16.80;96.00
3069;DHT22;1545;51.728;8.796;2023-08-06T06:32:02;16.90;96.00
3069;DHT22;1545;51.728;8.796;2023-08-06T06:34:28;17.00;95.80
3069;DHT22;1545;51.728;8.796;2023-08-06T06:36:53;17.10;95.40
3069;DHT22;1545;51.728;8.796;2023-08-06T06:39:19;17.30;95.20
3069;DHT22;1545;51.728;8.796;2023-08-06T06:41:44;17.50;93.90
3069;DHT22;1545;51.728;8.796;2023-08-06T06:44:10;17.60;93.20
3069;DHT22;1545;51.728;8.796;2023-08-06T06:46:35;17.80;92.90
3069;DHT22;1545;51.728;8.796;2023-08-06T06:49:01;18.00;91.90
3069;DHT22;1545;51.728;8.796;2023-08-06T06:51:28;18.30;92.30
3069;DHT22;1545;51.728;8.796;2023-08-06T06:53:53;18.60;91.10
3069;DHT22;1545;51.728;8.796;2023-08-06T06:56:19;18.80;89.50
3069;DHT22;1545;51.728;8.796;2023-08-06T06:58:44;19.10;88.60
3069;DHT22;1545;51.728;8.796;2023-08-06T07:01:10;19.30;88.00
3069;DHT22;1545;51.728;8.796;2023-08-06T07:03:37;19.80;86.80
3069;DHT22;1545;51.728;8.796;2023-08-06T07:06:02;20.40;85.30
3069;DHT22;1545;51.728;8.796;2023-08-06T07:08:29;21.70;81.00
3069;DHT22;1545;51.728;8.796;2023-08-06T07:11:04;23.10;78.00
3069;DHT22;1545;51.728;8.796;2023-08-06T07:13:31;24.30;75.00
3069;DHT22;1545;51.728;8.796;2023-08-06T07:15:57;24.90;74.40
3069;DHT22;1545;51.728;8.796;2023-08-06T07:18:23;25.90;72.10
3069;DHT22;1545;51.728;8.796;2023-08-06T07:20:54;27.10;67.30
3069;DHT22;1545;51.728;8.796;2023-08-06T07:23:24;27.90;64.30
3069;DHT22;1545;51.728;8.796;2023-08-06T07:25:50;28.70;62.40
3069;DHT22;1545;51.728;8.796;2023-08-06T07:28:16;29.30;59.60
3069;DHT22;1545;51.728;8.796;2023-08-06T07:30:43;29.60;59.00
3069;DHT22;1545;51.728;8.796;2023-08-06T07:33:09;30.10;57.60
3069;DHT22;1545;51.728;8.796;2023-08-06T07:35:35;30.50;57.20
3069;DHT22;1545;51.728;8.796;2023-08-06T07:38:02;31.00;55.70
3069;DHT22;1545;51.728;8.796;2023-08-06T07:40:27;31.00;54.80
3069;DHT22;1545;51.728;8.796;2023-08-06T07:42:54;31.10;55.30
3069;DHT22;1545;51.728;8.796;2023-08-06T07:45:19;31.50;54.40
3069;DHT22;1545;51.728;8.796;2023-08-06T07:47:45;31.70;53.10
3069;DHT22;1545;51.728;8.796;2023-08-06T07:50:11;31.70;53.20
3069;DHT22;1545;51.728;8.796;2023-08-06T07:52:36;31.90;52.80
3069;DHT22;1545;51.728;8.796;2023-08-06T07:55:02;32.20;52.30
3069;DHT22;1545;51.728;8.796;2023-08-06T07:57:31;32.20;51.90
3069;DHT22;1545;51.728;8.796;2023-08-06T07:59:56;32.30;52.20
3069;DHT22;1545;51.728;8.796;2023-08-06T08:02:22;32.60;51.60
3069;DHT22;1545;51.728;8.796;2023-08-06T08:07:14;32.30;52.10
3069;DHT22;1545;51.728;8.796;2023-08-06T08:09:39;31.40;52.70
3069;DHT22;1545;51.728;8.796;2023-08-06T08:12:05;31.10;53.40
3069;DHT22;1545;51.728;8.796;2023-08-06T08:14:31;30.60;54.60
3069;DHT22;1545;51.728;8.796;2023-08-06T08:17:01;30.20;55.70
3069;DHT22;1545;51.728;8.796;2023-08-06T08:19:28;30.10;55.60
3069;DHT22;1545;51.728;8.796;2023-08-06T08:21:53;29.90;56.00
3069;DHT22;1545;51.728;8.796;2023-08-06T08:24:20;28.90;58.00
3069;DHT22;1545;51.728;8.796;2023-08-06T08:26:46;28.60;59.10
3069;DHT22;1545;51.728;8.796;2023-08-06T08:29:12;28.10;60.70
3069;DHT22;1545;51.728;8.796;2023-08-06T08:31:37;27.90;60.20
3069;DHT22;1545;51.728;8.796;2023-08-06T08:34:05;28.40;59.80
3069;DHT22;1545;51.728;8.796;2023-08-06T08:36:31;29.10;57.90
3069;DHT22;1545;51.728;8.796;2023-08-06T08:38:57;28.80;58.40
3069;DHT22;1545;51.728;8.796;2023-08-06T08:41:23;27.90;59.50
3069;DHT22;1545;51.728;8.796;2023-08-06T08:43:50;27.30;61.30
3069;DHT22;1545;51.728;8.796;2023-08-06T08:46:18;26.50;63.30
3069;DHT22;1545;51.728;8.796;2023-08-06T08:48:44;25.90;65.90
3069;DHT22;1545;51.728;8.796;2023-08-06T08:51:10;25.40;66.90
3069;DHT22;1545;51.728;8.796;2023-08-06T08:53:37;25.00;67.00
3069;DHT22;1545;51.728;8.796;2023-08-06T08:56:04;24.40;69.40
3069;DHT22;1545;51.728;8.796;2023-08-06T08:58:30;24.50;67.70
3069;DHT22;1545;51.728;8.796;2023-08-06T09:00:56;24.60;68.40
3069;DHT22;1545;51.728;8.796;2023-08-06T09:03:22;24.60;65.80
3069;DHT22;1545;51.728;8.796;2023-08-06T09:05:51;25.00;67.00
3069;DHT22;1545;51.728;8.796;2023-08-06T09:08:21;26.10;63.70
3069;DHT22;1545;51.728;8.796;2023-08-06T09:10:50;27.30;60.10
3069;DHT22;1545;51.728;8.796;2023-08-06T09:13:16;28.10;57.60
3069;DHT22;1545;51.728;8.796;2023-08-06T09:15:41;28.60;56.50
3069;DHT22;1545;51.728;8.796;2023-08-06T09:18:10;28.70;56.90
3069;DHT22;1545;51.728;8.796;2023-08-06T09:20:38;28.10;57.10
3069;DHT22;1545;51.728;8.796;2023-08-06T09:23:07;27.40;58.60
3069;DHT22;1545;51.728;8.796;2023-08-06T09:25:39;26.70;60.60
3069;DHT22;1545;51.728;8.796;2023-08-06T09:28:06;25.70;62.00
3069;DHT22;1545;51.728;8.796;2023-08-06T09:30:36;24.30;65.00
3069;DHT22;1545;51.728;8.796;2023-08-06T09:33:02;23.50;66.80
3069;DHT22;1545;51.728;8.796;2023-08-06T09:35:29;23.10;69.20
3069;DHT22;1545;51.728;8.796;2023-08-06T09:37:56;23.30;71.20
3069;DHT22;1545;51.728;8.796;2023-08-06T09:40:31;23.60;69.50
3069;DHT22;1545;51.728;8.796;2023-08-06T09:42:58;23.90;69.70
3069;DHT22;1545;51.728;8.796;2023-08-06T09:45:30;23.70;68.50
3069;DHT22;1545;51.728;8.796;2023-08-06T09:47:57;23.70;68.70
3069;DHT22;1545;51.728;8.796;2023-08-06T09:50:31;23.60;68.50
3069;DHT22;1545;51.728;8.796;2023-08-06T09:52:57;23.50;69.60
3069;DHT22;1545;51.728;8.796;2023-08-06T09:55:23;23.40;69.50
3069;DHT22;1545;51.728;8.796;2023-08-06T09:57:51;22.90;70.50
3069;DHT22;1545;51.728;8.796;2023-08-06T10:00:16;22.70;71.90
3069;DHT22;1545;51.728;8.796;2023-08-06T10:02:43;22.40;71.80
3069;DHT22;1545;51.728;8.796;2023-08-06T10:05:09;22.30;72.60
3069;DHT22;1545;51.728;8.796;2023-08-06T10:07:35;22.40;73.60
3069;DHT22;1545;51.728;8.796;2023-08-06T10:10:02;22.40;74.10
3069;DHT22;1545;51.728;8.796;2023-08-06T10:12:30;22.10;76.40
3069;DHT22;1545;51.728;8.796;2023-08-06T10:14:59;21.60;77.50
3069;DHT22;1545;51.728;8.796;2023-08-06T10:17:27;21.50;78.00
3069;DHT22;1545;51.728;8.796;2023-08-06T10:19:53;21.50;77.80
3069;DHT22;1545;51.728;8.796;2023-08-06T10:22:22;21.50;78.10
3069;DHT22;1545;51.728;8.796;2023-08-06T10:24:59;21.30;78.50
3069;DHT22;1545;51.728;8.796;2023-08-06T10:27:35;21.00;78.70
3069;DHT22;1545;51.728;8.796;2023-08-06T10:30:27;21.00;79.30
3069;DHT22;1545;51.728;8.796;2023-08-06T10:32:55;20.90;79.40
3069;DHT22;1545;51.728;8.796;2023-08-06T10:35:44;20.90;79.50
3069;DHT22;1545;51.728;8.796;2023-08-06T10:38:15;20.90;79.50
3069;DHT22;1545;51.728;8.796;2023-08-06T10:40:48;20.50;79.70
3069;DHT22;1545;51.728;8.796;2023-08-06T10:43:34;20.50;80.20
3069;DHT22;1545;51.728;8.796;2023-08-06T10:46:09;20.60;80.40
3069;DHT22;1545;51.728;8.796;2023-08-06T10:48:39;20.90;79.20
3069;DHT22;1545;51.728;8.796;2023-08-06T10:51:10;20.80;79.60
3069;DHT22;1545;51.728;8.796;2023-08-06T10:53:36;20.80;79.20
3069;DHT22;1545;51.728;8.796;2023-08-06T10:56:02;20.80;79.50
3069;DHT22;1545;51.728;8.796;2023-08-06T10:58:37;20.90;80.00
3069;DHT22;1545;51.728;8.796;2023-08-06T11:01:02;21.20;79.50
3069;DHT22;1545;51.728;8.796;2023-08-06T11:03:28;21.50;78.50
3069;DHT22;1545;51.728;8.796;2023-08-06T11:05:54;22.00;78.80
3069;DHT22;1545;51.728;8.796;2023-08-06T11:08:27;22.30;76.60
3069;DHT22;1545;51.728;8.796;2023-08-06T11:10:52;22.60;76.50
3069;DHT22;1545;51.728;8.796;2023-08-06T11:13:20;22.60;76.40
3069;DHT22;1545;51.728;8.796;2023-08-06T11:15:46;22.50;74.60
3069;DHT22;1545;51.728;8.796;2023-08-06T11:18:11;22.40;74.50
3069;DHT22;1545;51.728;8.796;2023-08-06T11:20:38;22.40;75.00
3069;DHT22;1545;51.728;8.796;2023-08-06T11:23:03;22.10;74.80
3069;DHT22;1545;51.728;8.796;2023-08-06T11:25:30;22.40;75.40
3069;DHT22;1545;51.728;8.796;2023-08-06T11:27:55;22.60;75.00
3069;DHT22;1545;51.728;8.796;2023-08-06T11:30:21;22.50;73.50
3069;DHT22;1545;51.728;8.796;2023-08-06T11:32:49;22.50;74.90
3069;DHT22;1545;51.728;8.796;2023-08-06T11:35:15;22.30;73.40
3069;DHT22;1545;51.728;8.796;2023-08-06T11:37:47;21.80;74.80
3069;DHT22;1545;51.728;8.796;2023-08-06T11:40:15;21.60;75.10
3069;DHT22;1545;51.728;8.796;2023-08-06T11:42:40;21.80;75.70
3069;DHT22;1545;51.728;8.796;2023-08-06T11:45:08;22.00;75.50
3069;DHT22;1545;51.728;8.796;2023-08-06T11:47:38;22.20;77.00
3069;DHT22;1545;51.728;8.796;2023-08-06T11:50:04;22.10;77.50
3069;DHT22;1545;51.728;8.796;2023-08-06T11:52:31;22.00;78.00
3069;DHT22;1545;51.728;8.796;2023-08-06T11:55:03;22.10;78.40
3069;DHT22;1545;51.728;8.796;2023-08-06T11:57:32;22.20;79.00
3069;DHT22;1545;51.728;8.796;2023-08-06T12:00:11;22.30;78.70
3069;DHT22;1545;51.728;8.796;2023-08-06T12:02:41;22.40;78.10
3069;DHT22;1545;51.728;8.796;2023-08-06T12:07:47;22.50;76.60
3069;DHT22;1545;51.728;8.796;2023-08-06T12:10:14;22.60;76.80
3069;DHT22;1545;51.728;8.796;2023-08-06T12:12:40;22.60;77.30
3069;DHT22;1545;51.728;8.796;2023-08-06T12:15:06;22.60;77.60
3069;DHT22;1545;51.728;8.796;2023-08-06T12:17:32;22.40;78.60
3069;DHT22;1545;51.728;8.796;2023-08-06T12:19:58;22.20;79.20
3069;DHT22;1545;51.728;8.796;2023-08-06T12:22:24;21.80;80.20
3069;DHT22;1545;51.728;8.796;2023-08-06T12:24:50;21.70;80.40
3069;DHT22;1545;51.728;8.796;2023-08-06T12:27:15;21.70;80.50
3069;DHT22;1545;51.728;8.796;2023-08-06T12:29:46;21.80;80.70
3069;DHT22;1545;51.728;8.796;2023-08-06T12:32:12;22.00;80.10
3069;DHT22;1545;51.728;8.796;2023-08-06T12:34:41;22.30;79.40
3069;DHT22;1545;51.728;8.796;2023-08-06T12:37:08;22.40;78.70
3069;DHT22;1545;51.728;8.796;2023-08-06T12:39:34;22.70;78.90
3069;DHT22;1545;51.728;8.796;2023-08-06T12:42:01;22.90;78.50
3069;DHT22;1545;51.728;8.796;2023-08-06T12:44:27;23.20;78.00
3069;DHT22;1545;51.728;8.796;2023-08-06T12:46:53;23.30;77.80
3069;DHT22;1545;51.728;8.796;2023-08-06T12:49:19;23.40;77.60
3069;DHT22;1545;51.728;8.796;2023-08-06T12:51:49;23.40;78.20
3069;DHT22;1545;51.728;8.796;2023-08-06T12:54:16;23.50;77.90
3069;DHT22;1545;51.728;8.796;2023-08-06T12:56:42;23.20;77.40
3069;DHT22;1545;51.728;8.796;2023-08-06T12:59:07;23.00;78.10
3069;DHT22;1545;51.728;8.796;2023-08-06T13:01:33;23.20;78.00
3069;DHT22;1545;51.728;8.796;2023-08-06T13:04:00;23.50;77.20
3069;DHT22;1545;51.728;8.796;2023-08-06T13:06:25;23.90;75.50
3069;DHT22;1545;51.728;8.796;2023-08-06T13:08:51;24.20;74.00
3069;DHT22;1545;51.728;8.796;2023-08-06T13:11:17;24.50;71.50
3069;DHT22;1545;51.728;8.796;2023-08-06T13:13:42;24.50;72.00
3069;DHT22;1545;51.728;8.796;2023-08-06T13:16:08;24.70;73.50
3069;DHT22;1545;51.728;8.796;2023-08-06T13:18:33;24.90;70.90
3069;DHT22;1545;51.728;8.796;2023-08-06T13:20:59;24.70;70.50
3069;DHT22;1545;51.728;8.796;2023-08-06T13:23:24;24.70;70.30
3069;DHT22;1545;51.728;8.796;2023-08-06T13:25:50;24.90;69.80
3069;DHT22;1545;51.728;8.796;2023-08-06T13:28:16;25.40;69.20
3069;DHT22;1545;51.728;8.796;2023-08-06T13:30:41;25.70;67.30
3069;DHT22;1545;51.728;8.796;2023-08-06T13:33:08;26.00;64.40
3069;DHT22;1545;51.728;8.796;2023-08-06T13:35:33;26.20;64.50
3069;DHT22;1545;51.728;8.796;2023-08-06T13:37:59;26.30;64.30
3069;DHT22;1545;51.728;8.796;2023-08-06T13:40:24;25.20;65.90
3069;DHT22;1545;51.728;8.796;2023-08-06T13:42:50;24.20;68.20
3069;DHT22;1545;51.728;8.796;2023-08-06T13:45:15;24.10;68.00
3069;DHT22;1545;51.728;8.796;2023-08-06T13:47:41;23.60;69.20
3069;DHT22;1545;51.728;8.796;2023-08-06T13:50:08;23.00;73.30
3069;DHT22;1545;51.728;8.796;2023-08-06T13:52:33;22.20;77.70
3069;DHT22;1545;51.728;8.796;2023-08-06T13:55:01;22.00;79.30
3069;DHT22;1545;51.728;8.796;2023-08-06T13:57:29;21.60;79.40
3069;DHT22;1545;51.728;8.796;2023-08-06T13:59:54;21.30;80.50
3069;DHT22;1545;51.728;8.796;2023-08-06T14:02:20;21.30;80.30
3069;DHT22;1545;51.728;8.796;2023-08-06T14:04:45;21.10;80.20
3069;DHT22;1545;51.728;8.796;2023-08-06T14:07:11;21.10;79.40
3069;DHT22;1545;51.728;8.796;2023-08-06T14:09:36;21.10;79.40
3069;DHT22;1545;51.728;8.796;2023-08-06T14:12:02;20.80;80.80
3069;DHT22;1545;51.728;8.796;2023-08-06T14:14:28;20.10;80.80
3069;DHT22;1545;51.728;8.796;2023-08-06T14:16:54;19.70;79.50
3069;DHT22;1545;51.728;8.796;2023-08-06T14:19:20;19.60;80.20
3069;DHT22;1545;51.728;8.796;2023-08-06T14:21:45;19.70;79.20
3069;DHT22;1545;51.728;8.796;2023-08-06T14:24:11;19.70;80.00
3069;DHT22;1545;51.728;8.796;2023-08-06T14:26:37;19.80;79.30
3069;DHT22;1545;51.728;8.796;2023-08-06T14:29:03;20.10;79.00
3069;DHT22;1545;51.728;8.796;2023-08-06T14:31:29;20.10;78.10
3069;DHT22;1545;51.728;8.796;2023-08-06T14:33:54;20.00;77.90
3069;DHT22;1545;51.728;8.796;2023-08-06T14:36:20;20.00;79.10
3069;DHT22;1545;51.728;8.796;2023-08-06T14:38:45;19.90;78.70
3069;DHT22;1545;51.728;8.796;2023-08-06T14:41:11;19.80;78.40
3069;DHT22;1545;51.728;8.796;2023-08-06T14:43:36;19.50;80.00
3069;DHT22;1545;51.728;8.796;2023-08-06T14:46:02;19.30;81.80
3069;DHT22;1545;51.728;8.796;2023-08-06T14:48:29;19.00;84.90
3069;DHT22;1545;51.728;8.796;2023-08-06T14:50:55;18.80;87.30
3069;DHT22;1545;51.728;8.796;2023-08-06T14:53:20;18.40;90.90
3069;DHT22;1545;51.728;8.796;2023-08-06T14:55:46;17.90;94.30
3069;DHT22;1545;51.728;8.796;2023-08-06T14:58:11;17.70;96.30
3069;DHT22;1545;51.728;8.796;2023-08-06T15:00:37;17.70;97.60
3069;DHT22;1545;51.728;8.796;2023-08-06T15:03:03;17.50;97.90
3069;DHT22;1545;51.728;8.796;2023-08-06T15:05:28;17.40;98.70
3069;DHT22;1545;51.728;8.796;2023-08-06T15:07:54;17.30;98.80
3069;DHT22;1545;51.728;8.796;2023-08-06T15:10:20;17.20;98.80
3069;DHT22;1545;51.728;8.796;2023-08-06T15:12:45;17.10;98.80
3069;DHT22;1545;51.728;8.796;2023-08-06T15:15:11;17.00;98.80
3069;DHT22;1545;51.728;8.796;2023-08-06T15:17:37;17.00;98.80
3069;DHT22;1545;51.728;8.796;2023-08-06T15:20:03;17.00;98.80
3069;DHT22;1545;51.728;8.796;2023-08-06T15:22:29;16.90;98.80
3069;DHT22;1545;51.728;8.796;2023-08-06T15:24:57;17.00;98.80
3069;DHT22;1545;51.728;8.796;2023-08-06T15:27:23;17.00;98.80
3069;DHT22;1545;51.728;8.796;2023-08-06T15:29:49;17.00;98.80
3069;DHT22;1545;51.728;8.796;2023-08-06T15:32:14;17.10;98.80
3069;DHT22;1545;51.728;8.796;2023-08-06T15:34:40;17.20;98.80
3069;DHT22;1545;51.728;8.796;2023-08-06T15:37:06;17.20;98.80
3069;DHT22;1545;51.728;8.796;2023-08-06T15:39:33;17.20;98.80
3069;DHT22;1545;51.728;8.796;2023-08-06T15:41:59;17.20;98.80
3069;DHT22;1545;51.728;8.796;2023-08-06T15:44:24;17.20;98.80
3069;DHT22;1545;51.728;8.796;2023-08-06T15:46:50;17.20;98.80
3069;DHT22;1545;51.728;8.796;2023-08-06T15:49:15;17.10;98.80
3069;DHT22;1545;51.728;8.796;2023-08-06T15:51:41;17.10;98.80
3069;DHT22;1545;51.728;8.796;2023-08-06T15:54:06;17.10;98.80
3069;DHT22;1545;51.728;8.796;2023-08-06T15:56:32;17.10;98.80
3069;DHT22;1545;51.728;8.796;2023-08-06T15:59:09;17.10;98.80
3069;DHT22;1545;51.728;8.796;2023-08-06T16:01:43;17.10;98.80
3069;DHT22;1545;51.728;8.796;2023-08-06T16:04:09;17.00;98.80
3069;DHT22;1545;51.728;8.796;2023-08-06T16:06:34;17.00;98.80